createdAt,value
2019-06-26T00:03:01.751Z,4.42
2019-06-26T00:08:05.180Z,3.90
2019-06-26T00:13:08.648Z,3.98
2019-06-26T00:18:12.450Z,4.40
2019-06-26T00:23:15.967Z,4.67
2019-06-26T00:28:19.440Z,4.35
2019-06-26T00:33:22.889Z,3.83
2019-06-26T00:38:26.334Z,4.42
2019-06-26T00:43:41.877Z,4.12
2019-06-26T00:48:34.956Z,3.70
2019-06-26T00:53:38.400Z,4.20
2019-06-26T00:58:41.839Z,4.25
2019-06-26T01:03:45.292Z,3.92
2019-06-26T01:08:48.742Z,4.03
2019-06-26T01:13:58.217Z,3.72
2019-06-26T01:18:57.359Z,4.20
2019-06-26T01:24:00.807Z,4.17
2019-06-26T01:29:04.425Z,4.37
2019-06-26T01:34:07.871Z,4.15
2019-06-26T01:39:11.312Z,3.90
2019-06-26T01:44:15.748Z,4.05
2019-06-26T01:49:19.378Z,4.05
2019-06-26T01:54:22.828Z,4.30
2019-06-26T01:59:26.274Z,3.90
2019-06-26T02:04:29.716Z,4.33
2019-06-26T02:09:33.164Z,4.40
2019-06-26T02:14:36.611Z,4.42
2019-06-26T02:19:40.094Z,4.92
2019-06-26T02:24:43.511Z,4.25
2019-06-26T02:29:46.955Z,4.42
2019-06-26T02:34:50.404Z,4.10
2019-06-26T02:39:53.848Z,4.08
2019-06-26T02:44:57.294Z,3.72
2019-06-26T02:50:00.739Z,4.08
2019-06-26T02:55:06.212Z,4.58
2019-06-26T03:00:10.093Z,3.95
2019-06-26T03:05:15.135Z,3.90
2019-06-26T03:10:18.917Z,4.23
2019-06-26T03:15:22.367Z,4.05
2019-06-26T03:20:28.862Z,4.00
2019-06-26T03:25:32.304Z,4.25
2019-06-26T03:30:35.799Z,4.22
2019-06-26T03:35:40.835Z,4.37
2019-06-26T03:40:44.509Z,3.92
2019-06-26T03:45:47.979Z,4.53
2019-06-26T03:50:51.420Z,4.40
2019-06-26T03:55:54.872Z,4.22
2019-06-26T04:00:58.318Z,4.60
2019-06-26T04:06:01.756Z,4.80
2019-06-26T04:11:05.206Z,4.17
2019-06-26T04:16:08.647Z,4.25
2019-06-26T04:21:12.086Z,4.55
2019-06-26T04:26:15.529Z,4.12
2019-06-26T04:31:18.984Z,4.87
2019-06-26T04:36:22.416Z,4.42
2019-06-26T04:41:25.868Z,4.72
2019-06-26T04:46:29.308Z,4.17
2019-06-26T04:51:32.744Z,4.45
2019-06-26T04:56:36.191Z,4.65
2019-06-26T05:01:39.643Z,4.45
2019-06-26T05:06:43.114Z,5.08
2019-06-26T05:11:46.592Z,4.35
2019-06-26T05:16:50.036Z,3.95
2019-06-26T05:21:53.472Z,4.80
2019-06-26T05:26:57.340Z,4.10
2019-06-26T05:32:00.782Z,4.53
2019-06-26T05:37:04.233Z,3.80
2019-06-26T05:42:07.683Z,4.20
2019-06-26T05:47:11.127Z,3.77
2019-06-26T05:52:16.701Z,4.05
2019-06-26T05:57:19.731Z,3.95
2019-06-26T06:02:23.456Z,4.10
2019-06-26T06:07:27.101Z,3.73
2019-06-26T06:12:30.560Z,3.70
2019-06-26T06:17:34.015Z,3.80
2019-06-26T06:22:37.460Z,3.90
2019-06-26T06:27:40.900Z,4.42
2019-06-26T06:32:44.344Z,4.70
2019-06-26T06:37:47.798Z,3.90
2019-06-26T06:42:51.298Z,3.98
2019-06-26T06:47:54.735Z,3.60
2019-06-26T06:52:58.176Z,4.13
2019-06-26T06:58:01.626Z,4.40
2019-06-26T07:03:05.330Z,3.87
2019-06-26T07:08:08.771Z,3.65
2019-06-26T07:13:12.218Z,4.03
2019-06-26T07:18:15.699Z,4.05
2019-06-26T07:23:19.100Z,3.72
2019-06-26T07:28:22.585Z,3.85
2019-06-26T07:33:26.193Z,3.67
2019-06-26T07:38:29.597Z,3.62
2019-06-26T07:43:33.037Z,3.80
2019-06-26T07:48:36.479Z,3.70
2019-06-26T07:53:39.922Z,3.45
2019-06-26T07:58:43.360Z,3.50
2019-06-26T08:03:46.821Z,3.67
2019-06-26T08:08:50.241Z,3.45
2019-06-26T08:13:53.684Z,3.22
2019-06-26T08:18:57.123Z,3.30
2019-06-26T08:24:00.564Z,3.57
2019-06-26T08:29:04.007Z,3.27
2019-06-26T08:34:07.462Z,3.70
2019-06-26T08:39:10.957Z,3.17
2019-06-26T08:44:14.396Z,3.30
2019-06-26T08:49:25.507Z,3.70
2019-06-26T08:54:23.080Z,3.47
2019-06-26T08:59:26.520Z,3.25
2019-06-26T09:04:29.962Z,3.05
2019-06-26T09:09:33.675Z,2.98
2019-06-26T09:14:37.121Z,3.20
2019-06-26T09:19:40.564Z,3.10
2019-06-26T09:24:44.015Z,3.37
2019-06-26T09:29:47.459Z,3.15
2019-06-26T09:34:50.898Z,3.20
2019-06-26T09:39:54.342Z,3.08
2019-06-26T09:44:57.790Z,3.00
2019-06-26T09:50:01.232Z,2.98
2019-06-26T09:55:05.607Z,2.90
2019-06-26T10:00:14.379Z,3.08
2019-06-26T10:05:18.248Z,3.05
2019-06-26T10:10:21.936Z,2.27
2019-06-26T10:15:25.381Z,2.52
2019-06-26T10:20:28.818Z,2.60
2019-06-26T10:25:32.246Z,3.35
2019-06-26T10:30:35.706Z,2.85
2019-06-26T10:35:39.137Z,2.85
2019-06-26T10:40:42.580Z,2.58
2019-06-26T10:45:46.042Z,2.30
2019-06-26T10:50:57.874Z,2.47
2019-06-26T10:55:54.837Z,2.52
2019-06-26T11:00:58.276Z,2.25
2019-06-26T11:06:02.020Z,2.42
2019-06-26T11:11:05.416Z,2.33
2019-06-26T11:16:08.863Z,2.37
2019-06-26T11:21:12.301Z,2.17
2019-06-26T11:26:15.750Z,2.42
2019-06-26T11:31:19.190Z,2.40
2019-06-26T11:36:22.632Z,2.27
2019-06-26T11:41:26.079Z,2.30
2019-06-26T11:46:29.522Z,2.47
2019-06-26T11:51:32.969Z,2.25
2019-06-26T11:56:36.408Z,2.87
2019-06-26T12:01:39.872Z,2.10
2019-06-26T12:06:45.958Z,2.10
2019-06-26T12:11:48.597Z,1.92
2019-06-26T12:16:51.998Z,2.33
2019-06-26T12:21:55.435Z,1.87
2019-06-26T12:26:58.943Z,1.87
2019-06-26T12:32:02.501Z,2.42
2019-06-26T12:37:05.934Z,1.80
2019-06-26T12:42:09.491Z,2.00
2019-06-26T12:47:12.929Z,2.27
2019-06-26T12:52:17.176Z,1.90
2019-06-26T12:57:20.695Z,2.05
2019-06-26T13:02:24.135Z,1.92
2019-06-26T13:07:27.584Z,1.95
2019-06-26T13:12:31.070Z,2.30
2019-06-26T13:17:34.549Z,1.75
2019-06-26T13:22:38.127Z,1.67
2019-06-26T13:27:41.555Z,1.55
2019-06-26T13:32:45.000Z,1.90
2019-06-26T13:37:48.446Z,1.80
2019-06-26T13:42:51.911Z,1.87
2019-06-26T13:47:55.323Z,1.67
2019-06-26T13:52:58.765Z,1.80
2019-06-26T13:58:02.210Z,1.82
2019-06-26T14:03:05.649Z,1.70
2019-06-26T14:08:09.094Z,1.67
2019-06-26T14:13:12.532Z,1.62
2019-06-26T14:18:15.970Z,1.65
2019-06-26T14:23:19.409Z,1.70
2019-06-26T14:28:22.855Z,1.40
2019-06-26T14:33:26.296Z,1.70
2019-06-26T14:38:29.739Z,1.70
2019-06-26T14:43:33.177Z,1.60
2019-06-26T14:48:36.685Z,1.65
2019-06-26T14:53:40.083Z,1.90
2019-06-26T14:58:43.603Z,1.25
2019-06-26T15:03:47.045Z,1.50
2019-06-26T15:08:50.481Z,1.50
2019-06-26T15:13:53.948Z,1.57
2019-06-26T15:18:57.409Z,1.30
2019-06-26T15:24:00.865Z,1.40
2019-06-26T15:29:04.469Z,1.40
2019-06-26T15:34:07.913Z,1.20
2019-06-26T15:39:11.357Z,1.40
2019-06-26T15:44:14.816Z,1.52
2019-06-26T15:49:18.286Z,1.60
2019-06-26T15:54:21.721Z,1.37
2019-06-26T15:59:25.511Z,1.15
2019-06-26T16:04:28.954Z,1.32
2019-06-26T16:09:32.412Z,1.47
2019-06-26T16:14:35.851Z,1.40
2019-06-26T16:19:39.350Z,1.40
2019-06-26T16:24:43.135Z,1.60
2019-06-26T16:29:48.662Z,1.60
2019-06-26T16:34:51.743Z,1.80
2019-06-26T16:39:55.194Z,1.70
2019-06-26T16:44:58.638Z,1.52
2019-06-26T16:50:02.104Z,1.60
2019-06-26T16:55:06.886Z,1.50
2019-06-26T17:00:10.885Z,1.55
2019-06-26T17:05:14.564Z,1.50
2019-06-26T17:10:18.555Z,1.12
2019-06-26T17:15:21.997Z,1.30
2019-06-26T17:20:25.444Z,1.23
2019-06-26T17:25:28.895Z,1.42
2019-06-26T17:30:32.411Z,1.52
2019-06-26T17:35:35.855Z,1.50
2019-06-26T17:40:39.302Z,1.22
2019-06-26T17:45:43.314Z,1.45
2019-06-26T17:50:46.781Z,1.40
2019-06-26T17:55:50.226Z,1.22
2019-06-26T18:00:53.670Z,1.32
2019-06-26T18:05:57.136Z,1.32
2019-06-26T18:11:00.643Z,1.40
2019-06-26T18:16:04.099Z,1.17
2019-06-26T18:21:07.547Z,1.30
2019-06-26T18:26:13.675Z,1.10
2019-06-26T18:31:16.168Z,1.20
2019-06-26T18:36:19.619Z,1.42
2019-06-26T18:41:23.066Z,1.05
2019-06-26T18:46:26.567Z,1.10
2019-06-26T18:51:30.108Z,1.20
2019-06-26T18:56:33.553Z,1.05
2019-06-26T19:01:37.070Z,1.25
2019-06-26T19:06:40.519Z,1.17
2019-06-26T19:11:43.959Z,1.02
2019-06-26T19:16:47.429Z,0.80
2019-06-26T19:21:50.875Z,1.12
2019-06-26T19:26:55.080Z,1.15
2019-06-26T19:31:58.537Z,1.15
2019-06-26T19:37:01.991Z,1.00
2019-06-26T19:42:05.462Z,0.93
2019-06-26T19:47:08.881Z,0.93
2019-06-26T19:52:12.325Z,1.35
2019-06-26T19:57:15.777Z,1.40
2019-06-26T20:02:19.616Z,1.32
2019-06-26T20:07:23.035Z,1.77
2019-06-26T20:12:26.483Z,2.67
2019-06-26T20:17:29.934Z,2.52
2019-06-26T20:22:33.377Z,3.25
2019-06-26T20:27:36.908Z,3.55
2019-06-26T20:32:40.345Z,3.70
2019-06-26T20:37:43.819Z,3.83
2019-06-26T20:42:47.240Z,3.92
2019-06-26T20:47:50.685Z,3.72
2019-06-26T20:52:54.128Z,4.20
2019-06-26T20:57:57.574Z,3.75
2019-06-26T21:03:01.102Z,3.25
2019-06-26T21:08:04.555Z,3.33
2019-06-26T21:13:07.997Z,3.80
2019-06-26T21:18:11.439Z,3.87
2019-06-26T21:23:18.706Z,3.37
2019-06-26T21:28:20.065Z,3.72
2019-06-26T21:33:23.515Z,3.95
2019-06-26T21:38:26.957Z,3.37
2019-06-26T21:43:30.408Z,3.53
2019-06-26T21:48:33.851Z,3.55
2019-06-26T21:53:37.385Z,3.47
2019-06-26T21:58:40.831Z,2.87
2019-06-26T22:03:44.277Z,3.20
2019-06-26T22:08:47.725Z,2.62
2019-06-26T22:13:51.180Z,2.77
2019-06-26T22:18:54.627Z,2.75
2019-06-26T22:23:58.069Z,3.35
2019-06-26T22:29:01.516Z,3.17
2019-06-26T22:34:05.131Z,3.35
2019-06-26T22:39:08.814Z,2.60
2019-06-26T22:44:12.268Z,3.08
2019-06-26T22:49:15.820Z,3.17
2019-06-26T22:54:19.959Z,2.90
2019-06-26T22:59:23.822Z,2.80
2019-06-26T23:04:27.304Z,2.50
2019-06-26T23:09:30.927Z,3.07
2019-06-26T23:14:34.393Z,2.80
2019-06-26T23:19:37.903Z,3.27
2019-06-26T23:24:41.367Z,2.67
2019-06-26T23:29:44.838Z,3.12
2019-06-26T23:34:48.299Z,2.62
2019-06-26T23:39:51.812Z,2.95
2019-06-26T23:44:55.396Z,2.83
2019-06-26T23:49:58.845Z,2.92
2019-06-26T23:55:02.392Z,2.80
